Time;durP1;ratioP1;P1;durP2;ratioP2;P2;SDS_P1;SDS_P2;PMS_P1;PMS_P2;Temp;Humidity;BMP_temperature;BMP_pressure;BME280_temperature;BME280_humidity;BME280_pressure;Samples;Min_cycle;Max_cycle;Signal;HPM_P1;HPM_P2
2023/06/02 00:00:00;;;;;;;6.68;0.98;;;15.50;57.00;;;;;;5029624;28;20032;-66
2023/06/02 00:02:33;;;;;;;0.73;0.73;;;15.50;57.10;;;;;;5018668;28;20478;-66
2023/06/02 00:05:01;;;;;;;0.73;0.60;;;15.50;57.10;;;;;;5023843;28;20029;-66
2023/06/02 00:07:27;;;;;;;1.50;0.88;;;15.50;57.20;;;;;;5022334;28;20087;-66
2023/06/02 00:09:53;;;;;;;0.50;0.50;;;15.50;57.30;;;;;;5023248;28;20033;-66
2023/06/02 00:12:18;;;;;;;1.05;0.73;;;15.40;57.40;;;;;;5030233;28;20053;-66
2023/06/02 00:14:47;;;;;;;2.53;0.70;;;15.40;57.50;;;;;;5029409;28;20112;-66
2023/06/02 00:17:14;;;;;;;0.70;0.50;;;15.40;57.60;;;;;;5025852;28;20590;-66
2023/06/02 00:19:43;;;;;;;1.50;0.57;;;15.40;57.60;;;;;;5025629;28;20095;-66
2023/06/02 00:22:13;;;;;;;1.73;0.63;;;15.40;57.70;;;;;;5028380;28;20037;-66
2023/06/02 00:24:42;;;;;;;4.68;0.50;;;15.50;57.80;;;;;;5029443;28;20017;-66
2023/06/02 00:27:12;;;;;;;2.03;1.15;;;15.40;57.80;;;;;;5029255;28;20112;-66
2023/06/02 00:29:38;;;;;;;3.13;1.30;;;15.30;57.80;;;;;;5029981;28;20407;-62
2023/06/02 00:32:04;;;;;;;1.25;0.90;;;15.30;58.00;;;;;;5030000;28;20045;-62
2023/06/02 00:34:30;;;;;;;2.60;0.60;;;15.20;58.20;;;;;;5026350;28;20025;-62
2023/06/02 00:36:55;;;;;;;0.73;0.73;;;15.30;58.30;;;;;;5023015;28;20634;-62
2023/06/02 00:39:21;;;;;;;1.83;0.60;;;15.30;58.20;;;;;;5030604;28;20028;-63
2023/06/02 00:41:47;;;;;;;1.95;0.82;;;15.40;58.10;;;;;;5027624;28;20034;-62
2023/06/02 00:44:14;;;;;;;1.55;0.68;;;15.30;57.90;;;;;;5012518;28;20074;-63
2023/06/02 00:46:39;;;;;;;2.72;1.02;;;15.40;58.00;;;;;;5028260;28;20029;-62
2023/06/02 00:49:06;;;;;;;2.95;1.40;;;15.30;57.90;;;;;;5037269;28;20033;-62
2023/06/02 00:51:32;;;;;;;2.72;0.95;;;15.30;58.00;;;;;;5039065;28;20029;-62
2023/06/02 00:53:58;;;;;;;5.25;0.95;;;15.30;57.90;;;;;;5032309;28;20029;-66
2023/06/02 00:56:24;;;;;;;2.15;0.70;;;15.20;57.90;;;;;;5046210;28;20561;-66
2023/06/02 00:58:50;;;;;;;1.00;0.60;;;15.20;57.80;;;;;;5032398;28;20055;-66
2023/06/02 01:01:19;;;;;;;4.88;0.80;;;15.10;57.70;;;;;;5037874;28;20108;-62
2023/06/02 01:03:48;;;;;;;8.07;0.80;;;15.10;57.70;;;;;;5039781;28;20102;-62
2023/06/02 01:06:23;;;;;;;1.13;0.65;;;15.10;57.60;;;;;;5043158;28;20045;-62
2023/06/02 01:08:50;;;;;;;2.17;1.15;;;15.00;57.50;;;;;;5031084;28;20033;-62
2023/06/02 01:11:17;;;;;;;0.75;0.63;;;15.00;57.60;;;;;;5031953;28;20573;-66
2023/06/02 01:13:42;;;;;;;1.92;0.75;;;15.00;57.60;;;;;;5030482;28;20053;-66
2023/06/02 01:16:12;;;;;;;3.13;1.05;;;14.90;57.50;;;;;;5028018;28;20108;-66
2023/06/02 01:18:42;;;;;;;1.02;0.82;;;15.00;57.60;;;;;;5028624;28;20022;-65
2023/06/02 01:21:09;;;;;;;1.67;0.88;;;15.00;57.60;;;;;;5031360;28;20026;-66
2023/06/02 01:23:35;;;;;;;1.88;0.70;;;15.00;57.60;;;;;;5024547;28;20033;-66
2023/06/02 01:26:01;;;;;;;2.63;1.00;;;14.90;57.40;;;;;;5028747;28;20025;-66
2023/06/02 01:28:27;;;;;;;7.50;1.27;;;14.90;57.60;;;;;;5030434;28;20366;-65
2023/06/02 01:31:04;;;;;;;2.30;0.80;;;14.90;57.70;;;;;;5031127;28;20049;-66
2023/06/02 01:33:57;;;;;;;1.38;1.00;;;14.80;57.80;;;;;;5029156;28;20120;-66
2023/06/02 01:36:27;;;;;;;2.45;1.58;;;14.80;57.80;;;;;;5037623;28;20476;-66
2023/06/02 01:38:54;;;;;;;2.38;1.20;;;14.70;58.00;;;;;;5031550;28;20053;-67
2023/06/02 01:41:21;;;;;;;0.90;0.63;;;14.70;58.00;;;;;;5025618;28;20022;-66
2023/06/02 01:43:48;;;;;;;1.40;0.50;;;14.70;58.10;;;;;;5029820;28;20040;-68
2023/06/02 01:46:15;;;;;;;3.15;1.05;;;14.70;58.00;;;;;;5038984;28;20492;-66
2023/06/02 01:48:40;;;;;;;1.17;0.75;;;14.70;58.00;;;;;;5033399;28;20088;-66
2023/06/02 01:51:06;;;;;;;0.93;0.60;;;14.70;57.90;;;;;;5037976;28;20037;-67
2023/06/02 01:53:32;;;;;;;2.33;0.57;;;14.70;57.90;;;;;;5033427;28;20492;-67
2023/06/02 01:55:58;;;;;;;2.92;0.70;;;14.70;57.80;;;;;;5037923;28;20094;-67
2023/06/02 01:58:24;;;;;;;2.83;0.60;;;14.70;58.00;;;;;;5032275;28;20029;-63
2023/06/02 02:00:50;;;;;;;2.67;0.75;;;14.70;58.00;;;;;;5029010;28;20032;-63
2023/06/02 02:03:15;;;;;;;1.05;0.40;;;14.70;58.00;;;;;;5041788;28;20534;-63
2023/06/02 02:05:41;;;;;;;2.13;0.73;;;14.70;58.10;;;;;;5031665;28;20022;-62
2023/06/02 02:08:08;;;;;;;4.43;1.52;;;14.60;58.10;;;;;;5025113;28;20131;-62
2023/06/02 02:10:33;;;;;;;2.20;0.70;;;14.60;58.30;;;;;;5032960;28;20468;-62
2023/06/02 02:12:59;;;;;;;2.88;0.82;;;14.50;58.30;;;;;;5031528;28;20107;-62
2023/06/02 02:15:27;;;;;;;0.75;0.75;;;14.50;58.50;;;;;;5033781;28;20060;-62
2023/06/02 02:17:56;;;;;;;0.68;0.60;;;14.50;58.60;;;;;;5019751;28;20026;-62
2023/06/02 02:20:23;;;;;;;1.05;0.65;;;14.50;58.50;;;;;;5032595;28;20476;-63
2023/06/02 02:22:49;;;;;;;2.40;1.15;;;14.50;58.50;;;;;;5031431;28;20071;-63
2023/06/02 02:25:15;;;;;;;2.05;0.50;;;14.50;58.50;;;;;;5033147;28;20428;-62
2023/06/02 02:27:41;;;;;;;3.03;1.20;;;14.50;58.50;;;;;;5031494;28;20477;-62
2023/06/02 02:30:07;;;;;;;1.05;0.73;;;14.50;58.50;;;;;;5031908;28;20029;-62
2023/06/02 02:32:36;;;;;;;1.00;0.82;;;14.50;58.60;;;;;;5030299;28;20543;-62
2023/06/02 02:35:03;;;;;;;1.23;0.82;;;14.50;58.50;;;;;;5025730;28;20026;-62
2023/06/02 02:37:29;;;;;;;2.78;0.90;;;14.50;58.50;;;;;;5029283;28;20484;-62
2023/06/02 02:39:55;;;;;;;1.00;0.77;;;14.40;58.60;;;;;;5026632;28;20059;-62
2023/06/02 02:42:20;;;;;;;1.30;1.00;;;14.40;58.80;;;;;;5029410;28;20032;-62
2023/06/02 02:44:46;;;;;;;1.60;0.85;;;14.40;58.90;;;;;;5037169;28;20057;-62
2023/06/02 02:47:12;;;;;;;0.68;0.55;;;14.30;58.90;;;;;;5030492;28;20030;-62
2023/06/02 02:49:38;;;;;;;0.68;0.68;;;14.40;58.90;;;;;;5028663;28;20029;-62
2023/06/02 02:52:04;;;;;;;5.60;1.00;;;14.40;58.80;;;;;;5023410;28;20530;-65
2023/06/02 02:54:29;;;;;;;0.80;0.80;;;14.40;58.90;;;;;;5038485;28;20029;-62
2023/06/02 02:56:55;;;;;;;1.95;1.17;;;14.30;59.00;;;;;;5039707;28;20039;-62
2023/06/02 02:59:21;;;;;;;2.08;1.25;;;14.30;59.20;;;;;;5041045;28;20017;-62
2023/06/02 03:01:47;;;;;;;2.05;0.57;;;14.30;59.20;;;;;;5032815;28;20029;-62
2023/06/02 03:04:18;;;;;;;2.47;1.00;;;14.40;59.20;;;;;;5033590;28;20013;-62
2023/06/02 03:06:45;;;;;;;3.92;1.00;;;14.40;59.20;;;;;;5035825;28;20071;-62
2023/06/02 03:09:12;;;;;;;0.85;0.57;;;14.40;59.20;;;;;;5034878;28;20448;-62
2023/06/02 03:11:37;;;;;;;2.38;0.52;;;14.40;59.30;;;;;;5027330;28;20549;-62
2023/06/02 03:14:03;;;;;;;1.98;0.65;;;14.40;59.40;;;;;;5031591;28;20172;-62
2023/06/02 03:16:29;;;;;;;0.85;0.70;;;14.40;59.40;;;;;;5021969;28;20025;-61
2023/06/02 03:18:56;;;;;;;3.35;0.68;;;14.40;59.40;;;;;;5030472;28;20033;-65
2023/06/02 03:21:22;;;;;;;0.95;0.65;;;14.40;59.50;;;;;;5026093;28;20021;-65
2023/06/02 03:23:49;;;;;;;0.88;0.50;;;14.40;59.50;;;;;;5029766;28;20083;-62
2023/06/02 03:26:16;;;;;;;0.52;0.52;;;14.40;59.60;;;;;;5019226;28;20469;-62
2023/06/02 03:28:42;;;;;;;1.42;0.77;;;14.40;59.70;;;;;;5022359;28;20026;-65
2023/06/02 03:31:09;;;;;;;1.13;0.70;;;14.40;59.50;;;;;;5019231;28;20053;-65
2023/06/02 03:33:35;;;;;;;3.03;0.75;;;14.30;59.40;;;;;;5020970;28;20025;-65
2023/06/02 03:36:01;;;;;;;1.95;0.75;;;14.20;59.40;;;;;;5027544;28;20045;-65
2023/06/02 03:38:27;;;;;;;0.52;0.50;;;14.20;59.40;;;;;;5029907;28;20053;-62
2023/06/02 03:40:53;;;;;;;1.85;0.45;;;14.20;59.40;;;;;;5029837;28;20033;-61
2023/06/02 03:43:18;;;;;;;1.23;0.75;;;14.20;59.30;;;;;;5024575;28;20026;-62
2023/06/02 03:45:45;;;;;;;1.70;0.60;;;14.20;59.30;;;;;;5022924;28;20013;-62
2023/06/02 03:48:11;;;;;;;0.40;0.40;;;14.20;59.20;;;;;;5022619;28;20033;-62
2023/06/02 03:50:38;;;;;;;0.40;0.30;;;14.20;59.10;;;;;;5028557;28;20037;-61
2023/06/02 03:53:05;;;;;;;0.82;0.82;;;14.20;59.10;;;;;;5028212;28;20045;-61
2023/06/02 03:55:31;;;;;;;2.83;1.00;;;14.20;59.20;;;;;;5027735;28;20025;-61
2023/06/02 03:57:56;;;;;;;1.40;0.82;;;14.20;59.20;;;;;;5030314;28;20037;-61
2023/06/02 04:00:22;;;;;;;1.67;0.98;;;14.30;59.30;;;;;;5034273;28;20029;-61
2023/06/02 04:02:48;;;;;;;3.83;0.75;;;14.30;59.30;;;;;;5025377;28;20101;-62
2023/06/02 04:05:14;;;;;;;2.08;0.88;;;14.30;59.40;;;;;;5027604;28;20041;-61
2023/06/02 04:07:41;;;;;;;1.10;0.57;;;14.30;59.40;;;;;;5020786;28;20053;-61
2023/06/02 04:10:07;;;;;;;1.13;1.02;;;14.40;59.30;;;;;;5023341;28;20057;-61
2023/06/02 04:12:32;;;;;;;1.00;0.57;;;14.40;59.30;;;;;;5024736;28;20060;-61
2023/06/02 04:14:59;;;;;;;2.50;0.88;;;14.30;59.30;;;;;;5027062;28;20053;-61
2023/06/02 04:17:25;;;;;;;1.30;0.60;;;14.30;59.40;;;;;;5017776;28;20057;-61
2023/06/02 04:19:52;;;;;;;0.55;0.43;;;14.30;59.40;;;;;;5024556;28;20116;-61
2023/06/02 04:22:19;;;;;;;1.13;0.95;;;14.30;59.50;;;;;;5027421;28;20033;-62
2023/06/02 04:24:45;;;;;;;1.85;1.02;;;14.30;59.50;;;;;;5033636;28;20022;-64
2023/06/02 04:27:11;;;;;;;0.98;0.50;;;14.20;59.40;;;;;;5032987;28;20032;-66
2023/06/02 04:29:37;;;;;;;5.25;1.17;;;14.20;59.60;;;;;;5035410;28;20052;-65
2023/06/02 04:32:04;;;;;;;1.67;0.75;;;14.20;59.60;;;;;;5033670;28;20046;-64
2023/06/02 04:34:31;;;;;;;1.35;0.63;;;14.30;59.70;;;;;;5027276;28;20045;-64
2023/06/02 04:36:57;;;;;;;2.35;0.73;;;14.30;59.70;;;;;;5022252;28;20026;-64
2023/06/02 04:39:23;;;;;;;1.23;0.98;;;14.30;59.80;;;;;;5033614;28;20025;-62
2023/06/02 04:41:49;;;;;;;6.75;0.70;;;14.40;60.00;;;;;;5032135;28;20025;-61
2023/06/02 04:44:16;;;;;;;6.03;0.88;;;14.40;59.90;;;;;;5033585;28;20021;-61
2023/06/02 04:46:43;;;;;;;4.13;0.70;;;14.40;60.00;;;;;;5028328;28;20044;-62
2023/06/02 04:49:09;;;;;;;2.92;1.15;;;14.40;60.00;;;;;;5033154;28;20048;-61
2023/06/02 04:51:35;;;;;;;0.73;0.50;;;14.40;60.00;;;;;;5018562;28;20045;-62
2023/06/02 04:54:01;;;;;;;2.42;0.57;;;14.50;60.00;;;;;;5029375;28;20067;-61
2023/06/02 04:56:27;;;;;;;0.40;0.40;;;14.40;59.90;;;;;;5039894;28;20053;-62
2023/06/02 04:58:53;;;;;;;2.72;1.02;;;14.40;60.00;;;;;;5032121;28;20028;-61
2023/06/02 05:01:19;;;;;;;1.08;0.70;;;14.30;60.00;;;;;;5032565;28;20104;-62
2023/06/02 05:03:45;;;;;;;1.45;0.75;;;14.40;60.10;;;;;;5030681;28;20030;-62
2023/06/02 05:06:11;;;;;;;1.52;0.68;;;14.40;60.00;;;;;;5030532;28;20084;-62
2023/06/02 05:08:37;;;;;;;0.73;0.50;;;14.40;60.00;;;;;;5030926;28;20024;-62
2023/06/02 05:11:03;;;;;;;2.25;0.93;;;14.40;59.90;;;;;;5029086;28;20548;-62
2023/06/02 05:13:29;;;;;;;2.03;0.95;;;14.40;59.90;;;;;;5028555;28;20037;-62
2023/06/02 05:15:57;;;;;;;0.95;0.57;;;14.40;60.00;;;;;;5029301;28;20476;-62
2023/06/02 05:18:23;;;;;;;0.70;0.50;;;14.40;60.50;;;;;;5028478;28;20022;-62
2023/06/02 05:20:51;;;;;;;0.70;0.70;;;14.40;59.90;;;;;;5029958;28;20033;-61
2023/06/02 05:23:17;;;;;;;2.75;0.70;;;14.50;59.80;;;;;;5032768;28;20399;-62
2023/06/02 05:25:42;;;;;;;1.52;0.88;;;14.50;59.60;;;;;;5033323;28;20465;-61
2023/06/02 05:28:08;;;;;;;0.68;0.60;;;14.50;59.60;;;;;;5033362;28;20024;-65
2023/06/02 05:30:35;;;;;;;2.42;0.52;;;14.60;59.60;;;;;;5037204;28;20053;-65
2023/06/02 05:33:01;;;;;;;0.75;0.60;;;14.60;59.40;;;;;;5037793;28;20025;-65
2023/06/02 05:35:26;;;;;;;2.75;0.88;;;14.60;59.40;;;;;;5039503;28;20044;-62
2023/06/02 05:37:52;;;;;;;3.45;0.80;;;14.60;59.30;;;;;;5041073;28;20021;-65
2023/06/02 05:40:18;;;;;;;1.50;0.85;;;14.60;59.30;;;;;;5038882;28;20029;-65
2023/06/02 05:42:43;;;;;;;1.25;0.70;;;14.70;59.40;;;;;;5031383;28;20021;-65
2023/06/02 05:45:10;;;;;;;1.52;0.85;;;14.70;59.30;;;;;;5036159;28;20030;-65
2023/06/02 05:47:35;;;;;;;4.22;1.08;;;14.80;59.20;;;;;;5029874;28;20472;-65
2023/06/02 05:50:01;;;;;;;2.38;0.82;;;14.80;59.00;;;;;;5029250;28;20104;-65
2023/06/02 05:52:27;;;;;;;3.38;0.82;;;14.80;59.00;;;;;;5030968;28;20026;-65
2023/06/02 05:54:53;;;;;;;1.92;1.02;;;14.80;59.10;;;;;;5030017;28;20037;-65
2023/06/02 05:57:18;;;;;;;1.30;0.50;;;14.80;59.20;;;;;;5030666;28;20021;-65
2023/06/02 05:59:45;;;;;;;5.60;1.00;;;14.80;59.10;;;;;;5022391;28;20447;-65
2023/06/02 06:02:11;;;;;;;2.42;0.98;;;14.90;59.00;;;;;;5034149;28;20021;-65
2023/06/02 06:04:37;;;;;;;1.55;0.60;;;14.90;58.90;;;;;;5034425;28;20036;-61
2023/06/02 06:07:03;;;;;;;4.57;0.57;;;14.90;59.00;;;;;;5031622;28;20026;-62
2023/06/02 06:09:29;;;;;;;2.72;0.90;;;14.90;58.90;;;;;;5027087;28;20088;-61
2023/06/02 06:11:55;;;;;;;1.30;0.68;;;14.90;58.80;;;;;;5019457;28;20056;-62
2023/06/02 06:14:21;;;;;;;0.55;0.52;;;14.90;58.90;;;;;;5033499;28;20057;-66
2023/06/02 06:16:46;;;;;;;5.63;0.85;;;14.90;58.90;;;;;;5036475;28;20110;-66
2023/06/02 06:19:12;;;;;;;2.67;1.08;;;15.00;58.90;;;;;;5034116;28;20029;-66
2023/06/02 06:21:38;;;;;;;0.55;0.50;;;15.00;58.70;;;;;;5035933;28;20053;-66
2023/06/02 06:24:06;;;;;;;3.47;0.80;;;15.10;58.70;;;;;;5034965;28;20025;-66
2023/06/02 06:26:31;;;;;;;4.18;0.75;;;15.10;58.80;;;;;;5035860;28;20029;-66
2023/06/02 06:28:57;;;;;;;1.00;0.70;;;15.10;58.70;;;;;;5034401;28;20043;-66
2023/06/02 06:31:24;;;;;;;2.33;0.77;;;15.10;58.70;;;;;;5033646;28;20049;-66
2023/06/02 06:33:50;;;;;;;1.48;0.73;;;15.10;58.70;;;;;;5026433;28;20030;-66
2023/06/02 06:36:15;;;;;;;2.13;0.70;;;15.20;58.70;;;;;;5034164;28;20353;-63
2023/06/02 06:38:41;;;;;;;0.65;0.50;;;15.20;58.70;;;;;;5032733;28;20057;-62
2023/06/02 06:41:07;;;;;;;8.40;0.55;;;15.30;58.80;;;;;;5028241;28;20409;-63
2023/06/02 06:43:33;;;;;;;1.48;0.77;;;15.30;58.60;;;;;;5030147;28;20056;-62
2023/06/02 06:46:02;;;;;;;6.15;0.70;;;15.30;58.60;;;;;;5028732;28;20025;-62
2023/06/02 06:48:27;;;;;;;1.05;0.57;;;15.30;58.60;;;;;;5027822;28;20500;-62
2023/06/02 06:50:54;;;;;;;1.83;0.70;;;15.20;58.70;;;;;;5028513;28;20040;-62
2023/06/02 06:53:19;;;;;;;0.77;0.50;;;15.30;58.90;;;;;;5030935;28;20116;-62
2023/06/02 06:55:46;;;;;;;3.17;0.93;;;15.30;58.90;;;;;;5032320;28;20116;-62
2023/06/02 06:58:12;;;;;;;10.52;1.25;;;15.40;59.00;;;;;;5030463;28;20091;-66
2023/06/02 07:00:38;;;;;;;0.80;0.60;;;15.40;58.90;;;;;;5024142;28;20030;-66
2023/06/02 07:03:04;;;;;;;0.70;0.70;;;15.40;59.00;;;;;;5025935;28;20029;-66
2023/06/02 07:05:30;;;;;;;2.83;0.85;;;15.40;59.10;;;;;;5017447;28;20037;-66
2023/06/02 07:07:56;;;;;;;3.83;0.95;;;15.50;59.20;;;;;;5014814;28;20026;-66
2023/06/02 07:10:22;;;;;;;0.30;0.30;;;15.50;59.20;;;;;;5029944;28;20036;-66
2023/06/02 07:12:48;;;;;;;1.83;0.73;;;15.50;59.20;;;;;;5018803;28;20034;-66
2023/06/02 07:15:14;;;;;;;1.38;0.60;;;15.50;59.20;;;;;;5012785;28;20033;-66
2023/06/02 07:17:41;;;;;;;3.35;0.60;;;15.60;59.30;;;;;;5030963;28;20014;-66
2023/06/02 07:20:11;;;;;;;1.25;0.57;;;15.60;59.30;;;;;;5044763;28;20056;-66
2023/06/02 07:22:38;;;;;;;0.85;0.65;;;15.70;59.40;;;;;;5040683;28;20024;-66
2023/06/02 07:25:04;;;;;;;1.35;0.55;;;15.70;59.90;;;;;;5044116;28;20029;-66
2023/06/02 07:27:31;;;;;;;3.55;0.82;;;15.70;59.10;;;;;;5039163;28;20400;-62
2023/06/02 07:29:57;;;;;;;1.35;1.00;;;15.70;59.20;;;;;;5039885;28;20059;-62
2023/06/02 07:32:22;;;;;;;4.00;0.85;;;15.80;59.30;;;;;;5037670;28;20509;-63
2023/06/02 07:34:48;;;;;;;2.03;0.50;;;15.80;59.10;;;;;;5032781;28;20488;-62
2023/06/02 07:37:14;;;;;;;1.95;0.90;;;15.80;59.30;;;;;;5029463;28;20102;-62
2023/06/02 07:39:40;;;;;;;2.85;1.02;;;15.80;59.30;;;;;;5028352;28;20504;-63
2023/06/02 07:42:06;;;;;;;1.95;0.70;;;15.90;59.40;;;;;;5030789;28;20743;-62
2023/06/02 07:44:32;;;;;;;0.93;0.70;;;15.90;59.50;;;;;;5024847;28;20028;-62
2023/06/02 07:46:58;;;;;;;1.15;0.75;;;16.00;59.40;;;;;;5029175;28;20046;-62
2023/06/02 07:49:23;;;;;;;2.03;0.57;;;16.00;59.30;;;;;;5011822;28;20503;-63
2023/06/02 07:51:49;;;;;;;3.35;0.60;;;16.00;59.40;;;;;;5026865;28;20116;-61
2023/06/02 07:54:15;;;;;;;2.08;0.65;;;16.00;59.30;;;;;;5027868;28;20037;-63
2023/06/02 07:56:41;;;;;;;3.03;1.27;;;16.10;59.30;;;;;;5026921;28;20622;-62
2023/06/02 07:59:09;;;;;;;9.77;0.93;;;16.10;59.40;;;;;;5028763;28;20040;-63
2023/06/02 08:01:35;;;;;;;0.57;0.57;;;16.20;59.40;;;;;;5030035;28;20512;-63
2023/06/02 08:04:01;;;;;;;0.57;0.57;;;16.10;59.40;;;;;;5032940;28;20108;-64
2023/06/02 08:06:27;;;;;;;2.38;0.98;;;16.20;59.50;;;;;;5032838;28;20527;-62
2023/06/02 08:08:53;;;;;;;1.38;0.60;;;16.20;59.50;;;;;;5034121;28;20029;-62
2023/06/02 08:11:19;;;;;;;2.78;0.70;;;16.20;59.60;;;;;;5031319;28;20025;-62
2023/06/02 08:13:44;;;;;;;1.95;0.50;;;16.20;59.50;;;;;;5025648;28;20037;-62
2023/06/02 08:16:10;;;;;;;0.52;0.52;;;16.20;59.50;;;;;;5032485;28;20378;-65
2023/06/02 08:18:36;;;;;;;0.63;0.60;;;16.30;59.60;;;;;;5034900;28;20173;-64
2023/06/02 08:21:04;;;;;;;2.65;0.90;;;16.30;59.80;;;;;;5032231;28;20043;-66
2023/06/02 08:23:30;;;;;;;0.77;0.43;;;16.40;59.60;;;;;;5035202;28;20037;-64
2023/06/02 08:25:58;;;;;;;1.33;0.57;;;16.40;59.50;;;;;;5035118;28;20041;-65
2023/06/02 08:28:25;;;;;;;1.98;0.63;;;16.40;59.60;;;;;;5034472;28;20025;-65
2023/06/02 08:30:51;;;;;;;0.40;0.40;;;16.50;59.60;;;;;;5027044;28;20046;-65
2023/06/02 08:33:18;;;;;;;1.10;0.50;;;16.50;59.50;;;;;;5034700;28;20091;-64
2023/06/02 08:35:46;;;;;;;1.85;0.50;;;16.60;59.40;;;;;;5034179;28;20108;-65
2023/06/02 08:38:17;;;;;;;6.10;0.98;;;16.60;59.40;;;;;;5040237;28;20169;-62
2023/06/02 08:40:45;;;;;;;1.92;0.82;;;16.60;59.30;;;;;;5054297;28;20104;-63
2023/06/02 08:43:13;;;;;;;1.77;0.60;;;16.60;59.20;;;;;;5029839;28;20026;-62
2023/06/02 08:45:48;;;;;;;2.45;0.70;;;16.50;59.40;;;;;;5036079;28;20030;-62
2023/06/02 08:48:18;;;;;;;1.17;0.68;;;16.60;59.70;;;;;;5023700;28;20037;-62
2023/06/02 08:50:47;;;;;;;1.30;0.63;;;16.60;59.50;;;;;;5029142;28;20037;-62
2023/06/02 08:53:15;;;;;;;0.70;0.70;;;16.70;59.50;;;;;;5026002;28;20121;-62
2023/06/02 08:55:42;;;;;;;0.80;0.70;;;16.80;59.20;;;;;;5029593;28;20032;-62
2023/06/02 08:58:09;;;;;;;0.82;0.77;;;16.80;59.10;;;;;;5026875;28;20036;-62
2023/06/02 09:00:35;;;;;;;0.60;0.50;;;16.80;59.10;;;;;;5031406;28;20026;-62
2023/06/02 09:03:01;;;;;;;0.93;0.70;;;16.90;59.40;;;;;;5023713;28;20357;-62
2023/06/02 09:05:28;;;;;;;1.38;0.88;;;17.00;59.30;;;;;;5023231;28;20064;-62
2023/06/02 09:08:14;;;;;;;2.15;1.08;;;17.10;59.20;;;;;;5022637;28;20074;-63
2023/06/02 09:10:42;;;;;;;2.30;0.98;;;17.10;59.00;;;;;;5028331;28;20090;-65
2023/06/02 09:13:31;;;;;;;1.02;0.80;;;17.20;58.80;;;;;;5024702;28;20034;-65
2023/06/02 09:16:01;;;;;;;1.80;1.20;;;17.20;58.90;;;;;;5029762;28;20076;-64
2023/06/02 09:18:28;;;;;;;2.83;0.80;;;17.20;58.70;;;;;;5033278;28;20090;-65
2023/06/02 09:20:54;;;;;;;1.25;0.80;;;17.20;58.90;;;;;;5030498;28;20033;-65
2023/06/02 09:23:21;;;;;;;0.88;0.88;;;17.20;58.90;;;;;;5028810;28;20431;-65
2023/06/02 09:25:46;;;;;;;1.40;0.68;;;17.30;58.90;;;;;;5027155;28;20017;-65
2023/06/02 09:28:12;;;;;;;1.63;1.25;;;17.40;58.80;;;;;;5033300;28;20507;-65
2023/06/02 09:30:39;;;;;;;2.75;1.02;;;17.50;58.70;;;;;;5043859;28;20034;-65
2023/06/02 09:33:11;;;;;;;1.55;0.93;;;17.60;58.50;;;;;;5039094;28;20025;-65
2023/06/02 09:35:40;;;;;;;;;;;17.70;58.40;;;;;;5043329;28;20087;-65
2023/06/02 09:38:07;;;;;;;0.93;0.85;;;17.80;58.30;;;;;;5038934;28;19928;-65
2023/06/02 09:40:37;;;;;;;4.93;0.88;;;17.80;58.20;;;;;;5040331;28;20032;-65
2023/06/02 09:43:04;;;;;;;1.92;0.82;;;17.90;58.60;;;;;;5042804;28;20121;-65
2023/06/02 09:45:30;;;;;;;0.98;0.93;;;18.00;57.90;;;;;;5046470;28;20495;-65
2023/06/02 09:47:57;;;;;;;1.33;0.63;;;18.20;57.80;;;;;;5039176;28;20469;-65
2023/06/02 09:50:37;;;;;;;1.35;0.93;;;18.20;58.40;;;;;;5034681;28;20026;-64
2023/06/02 09:53:05;;;;;;;1.27;0.73;;;18.30;57.70;;;;;;5035479;28;20030;-64
2023/06/02 09:55:33;;;;;;;1.23;0.70;;;18.30;57.70;;;;;;5035490;28;20021;-65
2023/06/02 09:58:00;;;;;;;0.60;0.60;;;18.30;57.60;;;;;;5034690;28;20025;-65
2023/06/02 10:00:26;;;;;;;5.90;0.85;;;18.30;57.70;;;;;;5036887;28;20029;-65
2023/06/02 10:02:52;;;;;;;0.80;0.80;;;18.40;57.60;;;;;;5041356;28;20098;-64
2023/06/02 10:05:20;;;;;;;2.88;1.33;;;18.50;57.60;;;;;;5042286;28;20104;-64
2023/06/02 10:08:30;;;;;;;1.83;0.77;;;18.50;57.40;;;;;;5029013;28;20041;-64
2023/06/02 10:11:27;;;;;;;3.55;0.70;;;18.50;56.80;;;;;;5031777;28;20076;-65
2023/06/02 10:14:13;;;;;;;1.17;1.00;;;18.40;57.30;;;;;;5032229;28;20033;-64
2023/06/02 10:17:03;;;;;;;4.07;1.73;;;18.40;57.50;;;;;;5036713;28;20461;-64
2023/06/02 10:20:05;;;;;;;1.33;0.90;;;18.40;57.60;;;;;;5033353;28;20022;-65
2023/06/02 10:22:47;;;;;;;3.20;1.38;;;18.50;57.60;;;;;;5031894;28;20112;-65
2023/06/02 10:25:12;;;;;;;2.17;0.88;;;18.50;57.60;;;;;;5038536;28;20021;-65
2023/06/02 10:27:40;;;;;;;0.75;0.68;;;18.60;57.50;;;;;;5026361;28;20102;-65
2023/06/02 10:30:07;;;;;;;2.03;0.80;;;18.60;57.40;;;;;;5033553;28;20034;-65
2023/06/02 10:32:45;;;;;;;3.95;1.20;;;18.60;57.40;;;;;;5036998;28;20134;-63
2023/06/02 10:35:11;;;;;;;1.15;0.80;;;18.70;57.10;;;;;;5031849;28;20029;-65
2023/06/02 10:37:37;;;;;;;3.22;0.75;;;18.80;57.20;;;;;;5033738;28;20031;-65
2023/06/02 10:40:04;;;;;;;1.60;0.88;;;18.90;57.20;;;;;;5035521;28;20064;-65
2023/06/02 10:42:31;;;;;;;2.38;0.73;;;18.90;56.90;;;;;;5028124;28;20021;-65
2023/06/02 10:45:24;;;;;;;1.25;0.70;;;19.00;57.00;;;;;;5030724;28;20048;-65
2023/06/02 10:47:49;;;;;;;2.30;0.93;;;19.00;56.90;;;;;;5012260;28;20502;-65
2023/06/02 10:50:21;;;;;;;0.65;0.57;;;19.10;57.10;;;;;;5029440;28;20120;-64
2023/06/02 10:52:59;;;;;;;0.68;0.68;;;19.20;57.10;;;;;;5029926;28;20052;-65
2023/06/02 10:55:27;;;;;;;1.30;1.02;;;19.60;56.50;;;;;;5024435;28;20558;-65
2023/06/02 10:57:58;;;;;;;3.42;1.13;;;19.80;55.90;;;;;;5029261;28;20048;-65
2023/06/02 11:00:32;;;;;;;2.35;1.15;;;19.90;55.70;;;;;;5029723;28;20053;-65
2023/06/02 11:02:59;;;;;;;1.75;1.10;;;19.90;55.70;;;;;;5027405;28;20052;-65
2023/06/02 11:05:26;;;;;;;2.00;1.00;;;20.00;55.70;;;;;;5025740;28;20049;-65
2023/06/02 11:08:10;;;;;;;1.27;0.65;;;20.20;55.50;;;;;;5024630;28;20057;-65
2023/06/02 11:10:56;;;;;;;3.60;1.35;;;20.30;55.00;;;;;;5032162;28;20478;-65
2023/06/02 11:13:23;;;;;;;2.65;1.77;;;20.30;54.90;;;;;;5030566;28;20031;-65
2023/06/02 11:15:55;;;;;;;1.92;1.08;;;20.30;55.00;;;;;;5034883;28;20484;-65
2023/06/02 11:18:38;;;;;;;;;;;20.30;55.00;;;;;;5020158;28;20025;-65
2023/06/02 11:21:17;;;;;;;1.42;0.70;;;20.20;55.30;;;;;;5025921;28;20004;-65
2023/06/02 11:23:43;;;;;;;1.30;1.17;;;20.20;55.30;;;;;;5026674;28;20493;-65
2023/06/02 11:26:15;;;;;;;2.90;1.20;;;20.40;55.10;;;;;;5027330;28;20044;-64
2023/06/02 11:28:41;;;;;;;1.70;0.80;;;20.40;54.90;;;;;;5028637;28;20026;-62
2023/06/02 11:31:07;;;;;;;4.82;1.15;;;20.40;54.70;;;;;;5023336;28;20540;-62
2023/06/02 11:33:34;;;;;;;3.10;1.58;;;20.40;54.60;;;;;;5032328;28;20117;-63
2023/06/02 11:36:01;;;;;;;1.52;1.00;;;20.40;54.70;;;;;;5022295;28;20368;-63
2023/06/02 11:38:31;;;;;;;1.35;0.98;;;20.40;54.70;;;;;;5026031;28;20053;-62
2023/06/02 11:41:08;;;;;;;1.60;0.93;;;20.40;54.80;;;;;;5026456;28;20457;-63
2023/06/02 11:43:34;;;;;;;4.05;1.30;;;20.40;54.70;;;;;;5021162;28;20030;-62
2023/06/02 11:46:10;;;;;;;1.13;0.70;;;20.40;54.90;;;;;;5027346;28;20047;-63
2023/06/02 11:48:38;;;;;;;0.93;0.93;;;20.50;54.80;;;;;;5023688;28;20492;-63
2023/06/02 11:51:08;;;;;;;3.65;0.88;;;20.60;54.70;;;;;;5028235;28;20040;-63
2023/06/02 11:53:35;;;;;;;2.10;0.70;;;20.80;54.60;;;;;;5025034;28;20520;-63
2023/06/02 11:56:01;;;;;;;4.30;0.95;;;20.90;54.20;;;;;;5027207;28;20033;-63
2023/06/02 11:58:29;;;;;;;2.58;0.93;;;21.10;54.10;;;;;;5032589;28;20030;-63
2023/06/02 12:01:15;;;;;;;7.35;1.00;;;21.20;54.10;;;;;;5036745;28;20026;-65
2023/06/02 12:03:58;;;;;;;2.28;0.70;;;21.40;53.60;;;;;;5027686;28;20100;-65
2023/06/02 12:06:24;;;;;;;2.50;0.70;;;21.40;53.60;;;;;;5022388;28;20045;-65
2023/06/02 12:08:50;;;;;;;4.32;1.55;;;21.30;53.50;;;;;;5025476;28;20037;-63
2023/06/02 12:11:17;;;;;;;3.50;0.80;;;21.30;53.90;;;;;;5023753;28;20429;-65
2023/06/02 12:14:04;;;;;;;1.33;1.23;;;21.30;53.80;;;;;;5007107;28;21001;-65
2023/06/02 12:16:30;;;;;;;2.25;1.13;;;21.40;53.60;;;;;;5025155;28;20021;-65
2023/06/02 12:19:13;;;;;;;1.10;0.98;;;21.40;53.30;;;;;;5030786;28;20029;-65
2023/06/02 12:21:41;;;;;;;3.53;1.13;;;21.40;53.30;;;;;;5024456;28;20067;-65
2023/06/02 12:24:08;;;;;;;4.88;1.52;;;21.40;53.60;;;;;;5032671;28;20374;-65
2023/06/02 12:26:44;;;;;;;1.38;0.82;;;21.50;53.50;;;;;;5032996;28;20082;-65
2023/06/02 12:29:10;;;;;;;4.68;1.25;;;21.70;54.10;;;;;;5023081;28;20029;-63
2023/06/02 12:31:38;;;;;;;3.00;0.80;;;21.80;53.30;;;;;;5032952;28;20049;-63
2023/06/02 12:34:06;;;;;;;4.10;1.80;;;22.10;53.20;;;;;;5011161;28;20037;-63
2023/06/02 12:36:32;;;;;;;1.00;0.82;;;22.30;52.60;;;;;;5026945;28;20061;-65
2023/06/02 12:39:00;;;;;;;2.50;0.70;;;22.40;52.60;;;;;;5028505;28;20041;-65
2023/06/02 12:41:26;;;;;;;1.45;0.90;;;22.50;52.10;;;;;;5031755;28;20099;-64
2023/06/02 12:43:52;;;;;;;1.60;0.98;;;22.70;52.10;;;;;;5029564;28;20033;-65
2023/06/02 12:46:18;;;;;;;1.77;0.80;;;23.00;51.70;;;;;;5030875;28;20745;-65
2023/06/02 12:48:43;;;;;;;1.20;0.75;;;23.10;51.30;;;;;;5027313;28;20526;-65
2023/06/02 12:51:09;;;;;;;1.15;0.73;;;23.00;51.30;;;;;;5033091;28;20029;-63